createdAt,value
2018-08-10T00:02:02.936Z,13.45
2018-08-10T00:04:38.808Z,11.63
2018-08-10T00:07:13.975Z,13.58
2018-08-10T00:09:48.860Z,10.00
2018-08-10T00:12:23.839Z,12.20
2018-08-10T00:14:58.625Z,12.20
2018-08-10T00:17:33.408Z,14.40
2018-08-10T00:20:25.013Z,13.98
2018-08-10T00:23:12.012Z,12.60
2018-08-10T00:25:48.220Z,13.50
2018-08-10T00:28:23.005Z,12.63
2018-08-10T00:30:57.929Z,10.05
2018-08-10T00:33:33.812Z,12.68
2018-08-10T00:36:09.704Z,12.40
2018-08-10T00:38:44.509Z,12.88
2018-08-10T00:41:19.361Z,9.65
2018-08-10T00:43:56.254Z,9.18
2018-08-10T00:46:31.041Z,8.68
2018-08-10T00:49:05.956Z,9.48
2018-08-10T00:51:40.773Z,11.18
2018-08-10T00:54:15.916Z,7.28
2018-08-10T00:56:50.685Z,11.40
2018-08-10T00:59:25.483Z,5.97
2018-08-10T01:02:01.273Z,6.75
2018-08-10T01:04:36.081Z,9.83
2018-08-10T01:07:10.884Z,10.58
2018-08-10T01:09:45.712Z,10.45
2018-08-10T01:12:20.563Z,7.78
2018-08-10T01:14:55.354Z,7.62
2018-08-10T01:17:30.192Z,8.33
2018-08-10T01:20:07.535Z,8.48
2018-08-10T01:22:48.574Z,6.95
2018-08-10T01:25:25.836Z,8.20
2018-08-10T01:28:01.699Z,7.87
2018-08-10T01:30:37.474Z,8.60
2018-08-10T01:33:12.242Z,7.30
2018-08-10T01:35:47.032Z,10.05
2018-08-10T01:38:21.829Z,8.78
2018-08-10T01:40:56.656Z,12.73
2018-08-10T01:43:31.427Z,8.30
2018-08-10T01:46:06.245Z,11.63
2018-08-10T01:48:41.001Z,7.15
2018-08-10T01:51:15.779Z,8.65
2018-08-10T01:53:50.890Z,6.05
2018-08-10T01:56:25.780Z,6.35
2018-08-10T01:59:00.609Z,5.92
2018-08-10T02:01:35.414Z,6.35
2018-08-10T02:04:10.257Z,6.05
2018-08-10T02:06:45.122Z,7.42
2018-08-10T02:09:19.895Z,7.22
2018-08-10T02:11:54.643Z,6.78
2018-08-10T02:14:29.620Z,6.72
2018-08-10T02:17:04.423Z,7.70
2018-08-10T02:19:39.196Z,7.28
2018-08-10T02:22:14.632Z,7.65
2018-08-10T02:24:49.486Z,8.03
2018-08-10T02:27:24.423Z,6.65
2018-08-10T02:29:59.180Z,6.35
2018-08-10T02:32:35.032Z,6.20
2018-08-10T02:35:09.776Z,6.80
2018-08-10T02:37:44.586Z,6.45
2018-08-10T02:40:21.184Z,6.80
2018-08-10T02:42:56.011Z,7.45
2018-08-10T02:45:31.816Z,7.45
2018-08-10T02:48:06.622Z,6.72
2018-08-10T02:50:42.434Z,6.60
2018-08-10T02:53:17.213Z,6.90
2018-08-10T02:55:51.978Z,7.05
2018-08-10T02:58:30.114Z,6.62
2018-08-10T03:01:05.927Z,5.85
2018-08-10T03:03:40.750Z,6.05
2018-08-10T03:06:15.541Z,6.37
2018-08-10T03:08:50.426Z,6.10
2018-08-10T03:11:26.500Z,6.62
2018-08-10T03:14:02.284Z,7.05
2018-08-10T03:16:37.484Z,7.00
2018-08-10T03:19:12.382Z,6.55
2018-08-10T03:21:47.487Z,6.08
2018-08-10T03:24:23.289Z,6.08
2018-08-10T03:26:59.111Z,6.28
2018-08-10T03:29:33.933Z,6.40
2018-08-10T03:32:08.748Z,6.12
2018-08-10T03:34:43.567Z,5.90
2018-08-10T03:37:22.069Z,6.53
2018-08-10T03:39:56.843Z,7.12
2018-08-10T03:42:32.678Z,7.85
2018-08-10T03:45:08.896Z,6.17
2018-08-10T03:47:43.664Z,6.50
2018-08-10T03:50:19.499Z,6.17
2018-08-10T03:52:54.349Z,6.28
2018-08-10T03:55:29.262Z,6.55
2018-08-10T03:58:05.073Z,6.90
2018-08-10T04:00:39.863Z,5.87
2018-08-10T04:03:15.621Z,6.00
2018-08-10T04:05:50.808Z,5.87
2018-08-10T04:08:26.641Z,8.30
2018-08-10T04:11:01.424Z,5.85
2018-08-10T04:13:36.217Z,8.25
2018-08-10T04:16:11.046Z,6.33
2018-08-10T04:18:46.885Z,7.62
2018-08-10T04:21:21.683Z,7.00
2018-08-10T04:23:56.512Z,6.22
2018-08-10T04:26:31.310Z,6.00
2018-08-10T04:29:06.211Z,5.22
2018-08-10T04:31:40.996Z,8.20
2018-08-10T04:34:15.827Z,4.85
2018-08-10T04:37:00.025Z,5.03
2018-08-10T04:39:43.816Z,5.42
2018-08-10T04:42:30.740Z,4.45
2018-08-10T04:45:07.032Z,4.53
2018-08-10T04:47:47.719Z,5.47
2018-08-10T04:50:38.608Z,3.65
2018-08-10T04:53:21.174Z,3.02
2018-08-10T04:58:41.063Z,3.35
2018-08-10T05:01:15.869Z,3.42
2018-08-10T05:03:51.088Z,2.72
2018-08-10T05:06:26.066Z,2.67
2018-08-10T05:09:00.865Z,3.22
2018-08-10T05:11:35.706Z,3.47
2018-08-10T05:14:10.787Z,2.12
2018-08-10T05:16:45.620Z,2.35
2018-08-10T05:19:20.396Z,2.60
2018-08-10T05:21:55.207Z,2.80
2018-08-10T05:24:30.347Z,1.57
2018-08-10T05:27:06.141Z,2.08
2018-08-10T05:29:41.084Z,1.05
2018-08-10T05:32:15.863Z,2.15
2018-08-10T05:34:50.691Z,2.55
2018-08-10T05:37:25.948Z,0.98
2018-08-10T05:40:00.722Z,1.20
2018-08-10T05:42:36.526Z,0.50
2018-08-10T05:45:11.311Z,0.93
2018-08-10T05:47:46.081Z,0.98
2018-08-10T05:50:20.900Z,1.20
2018-08-10T05:52:56.687Z,2.22
2018-08-10T05:55:31.437Z,2.67
2018-08-10T05:58:06.606Z,1.35
2018-08-10T06:00:41.391Z,1.47
2018-08-10T06:03:16.398Z,0.72
2018-08-10T06:05:51.312Z,3.80
2018-08-10T06:08:26.069Z,0.88
2018-08-10T06:11:00.876Z,0.98
2018-08-10T06:13:36.691Z,0.65
2018-08-10T06:16:12.511Z,0.65
2018-08-10T06:18:47.510Z,0.30
2018-08-10T06:21:22.244Z,0.82
2018-08-10T06:23:56.997Z,3.85
2018-08-10T06:26:31.762Z,1.17
2018-08-10T06:29:06.552Z,1.07
2018-08-10T06:31:41.324Z,1.20
2018-08-10T06:34:16.196Z,1.57
2018-08-10T06:36:51.080Z,1.75
2018-08-10T06:39:25.868Z,0.30
2018-08-10T06:42:01.658Z,3.47
2018-08-10T06:44:36.452Z,3.00
2018-08-10T06:47:11.330Z,1.12
2018-08-10T06:49:46.153Z,2.85
2018-08-10T06:52:20.944Z,2.17
2018-08-10T06:54:55.706Z,1.85
2018-08-10T06:57:30.499Z,3.15
2018-08-10T07:00:07.263Z,4.05
2018-08-10T07:02:42.022Z,3.40
2018-08-10T07:05:16.783Z,2.75
2018-08-10T07:07:51.609Z,2.67
2018-08-10T07:10:28.599Z,1.10
2018-08-10T07:13:03.475Z,3.17
2018-08-10T07:15:38.351Z,2.08
2018-08-10T07:18:13.104Z,3.17
2018-08-10T07:20:48.876Z,2.20
2018-08-10T07:23:23.650Z,3.05
2018-08-10T07:26:03.295Z,3.10
2018-08-10T07:28:38.078Z,1.87
2018-08-10T07:31:12.885Z,5.47
2018-08-10T07:33:47.653Z,2.50
2018-08-10T07:36:22.463Z,3.45
2018-08-10T07:38:57.260Z,3.58
2018-08-10T07:41:32.048Z,3.90
2018-08-10T07:44:07.100Z,4.42
2018-08-10T07:46:41.922Z,4.97
2018-08-10T07:49:18.694Z,1.35
2018-08-10T07:51:54.642Z,4.90
2018-08-10T07:54:29.416Z,3.95
2018-08-10T07:57:04.257Z,4.45
2018-08-10T07:59:39.028Z,3.15
2018-08-10T08:02:14.493Z,6.87
2018-08-10T08:04:49.281Z,3.72
2018-08-10T08:07:24.159Z,3.35
2018-08-10T08:10:00.013Z,3.90
2018-08-10T08:12:35.180Z,5.45
2018-08-10T08:15:10.033Z,3.42
2018-08-10T08:17:45.835Z,2.40
2018-08-10T08:20:20.618Z,6.72
2018-08-10T08:23:02.192Z,4.30
2018-08-10T08:25:37.009Z,3.85
2018-08-10T08:28:11.819Z,4.87
2018-08-10T08:30:47.615Z,3.70
2018-08-10T08:33:22.416Z,3.52
2018-08-10T08:35:59.303Z,2.75
2018-08-10T08:38:44.988Z,3.75
2018-08-10T08:41:19.771Z,3.10
2018-08-10T08:44:32.268Z,4.62
2018-08-10T08:47:07.591Z,5.67
2018-08-10T08:49:42.381Z,2.02
2018-08-10T08:52:17.276Z,1.60
2018-08-10T08:55:05.587Z,1.70
2018-08-10T08:57:40.388Z,0.47
2018-08-10T09:00:15.600Z,1.90
2018-08-10T09:02:50.379Z,1.35
2018-08-10T09:05:25.268Z,2.92
2018-08-10T09:08:01.064Z,3.52
2018-08-10T09:10:35.907Z,1.98
2018-08-10T09:13:10.712Z,1.22
2018-08-10T09:15:45.477Z,0.68
2018-08-10T09:18:21.297Z,3.00
2018-08-10T09:20:56.117Z,2.17
2018-08-10T09:23:31.907Z,1.87
2018-08-10T09:26:06.660Z,0.90
2018-08-10T09:28:41.487Z,1.77
2018-08-10T09:31:17.289Z,2.77
2018-08-10T09:33:52.076Z,1.57
2018-08-10T09:36:26.872Z,1.95
2018-08-10T09:39:01.660Z,2.55
2018-08-10T09:41:36.491Z,1.15
2018-08-10T09:44:12.427Z,1.70
2018-08-10T09:46:47.239Z,1.37
2018-08-10T09:49:22.026Z,1.15
2018-08-10T09:51:56.913Z,3.70
2018-08-10T09:54:31.869Z,2.15
2018-08-10T09:57:06.749Z,3.80
2018-08-10T09:59:41.636Z,4.42
2018-08-10T10:02:19.517Z,3.10
2018-08-10T10:04:54.321Z,1.17
2018-08-10T10:07:29.110Z,3.37
2018-08-10T10:10:03.930Z,2.95
2018-08-10T10:12:38.783Z,2.37
2018-08-10T10:15:14.567Z,5.35
2018-08-10T10:17:49.366Z,3.08
2018-08-10T10:20:24.159Z,1.00
2018-08-10T10:22:59.094Z,2.72
2018-08-10T10:25:34.910Z,3.12
2018-08-10T10:28:09.728Z,2.20
2018-08-10T10:30:44.549Z,5.08
2018-08-10T10:33:20.359Z,2.10
2018-08-10T10:35:55.151Z,2.25
2018-08-10T10:38:30.973Z,5.20
2018-08-10T10:41:05.808Z,4.42
2018-08-10T10:43:40.608Z,2.87
2018-08-10T10:46:16.457Z,4.12
2018-08-10T10:48:52.338Z,1.37
2018-08-10T10:51:27.154Z,3.98
2018-08-10T10:54:01.926Z,2.80
2018-08-10T10:56:37.801Z,4.95
2018-08-10T10:59:12.736Z,3.65
2018-08-10T11:01:47.538Z,2.58
2018-08-10T11:04:22.408Z,3.80
2018-08-10T11:06:57.565Z,4.00
2018-08-10T11:09:32.446Z,3.85
2018-08-10T11:12:07.248Z,3.08
2018-08-10T11:14:43.079Z,2.83
2018-08-10T11:17:17.857Z,5.87
2018-08-10T11:19:53.742Z,3.37
2018-08-10T11:22:28.941Z,1.77
2018-08-10T11:25:03.791Z,2.37
2018-08-10T11:27:39.226Z,4.33
2018-08-10T11:30:15.183Z,3.67
2018-08-10T11:32:50.118Z,2.08
2018-08-10T11:35:25.896Z,3.12
2018-08-10T11:38:00.687Z,2.52
2018-08-10T11:40:35.623Z,2.58
2018-08-10T11:43:10.452Z,1.02
2018-08-10T11:45:45.612Z,1.40
2018-08-10T11:48:20.348Z,1.05
2018-08-10T11:50:55.153Z,1.27
2018-08-10T11:53:29.976Z,1.30
2018-08-10T11:56:04.734Z,0.20
2018-08-10T11:58:39.597Z,1.12
2018-08-10T12:01:14.468Z,1.37
2018-08-10T12:03:49.508Z,0.60
2018-08-10T12:06:24.271Z,2.35
2018-08-10T12:08:59.101Z,1.02
2018-08-10T12:11:33.881Z,1.40
2018-08-10T12:14:08.902Z,0.93
2018-08-10T12:16:43.741Z,0.70
2018-08-10T12:19:18.547Z,0.75
2018-08-10T12:21:53.379Z,0.65
2018-08-10T12:24:28.514Z,0.90
2018-08-10T12:27:04.359Z,2.17
2018-08-10T12:29:39.123Z,2.00
2018-08-10T12:32:13.938Z,0.85
2018-08-10T12:34:48.820Z,2.17
2018-08-10T12:37:24.904Z,0.50
2018-08-10T12:40:00.802Z,3.22
2018-08-10T12:42:35.608Z,2.20
2018-08-10T12:45:11.436Z,4.40
2018-08-10T12:47:46.247Z,4.00
2018-08-10T12:50:21.109Z,1.47
2018-08-10T12:52:56.154Z,1.90
2018-08-10T12:55:30.952Z,2.05
2018-08-10T12:58:05.846Z,4.62
2018-08-10T13:00:40.959Z,2.70
2018-08-10T13:03:15.813Z,2.12
2018-08-10T13:05:51.732Z,2.85
2018-08-10T13:08:26.554Z,2.47
2018-08-10T13:11:01.336Z,2.05
2018-08-10T13:13:36.122Z,4.67
2018-08-10T13:16:11.913Z,1.40
2018-08-10T13:18:46.744Z,3.22
2018-08-10T13:21:22.552Z,2.62
2018-08-10T13:23:57.392Z,3.02
2018-08-10T13:26:32.379Z,3.22
2018-08-10T13:29:07.168Z,3.87
2018-08-10T13:31:42.922Z,4.90
2018-08-10T13:34:17.733Z,1.90
2018-08-10T13:36:52.525Z,4.25
2018-08-10T13:39:27.319Z,2.10
2018-08-10T13:42:02.153Z,0.55
2018-08-10T13:44:37.447Z,2.30
2018-08-10T13:47:12.268Z,1.65
2018-08-10T13:49:47.035Z,2.62
2018-08-10T13:52:21.795Z,1.50
2018-08-10T13:55:10.697Z,3.12
2018-08-10T13:57:47.122Z,1.20
2018-08-10T14:00:25.274Z,1.70
2018-08-10T14:03:00.075Z,1.77
2018-08-10T14:05:34.936Z,1.60
2018-08-10T14:08:09.732Z,0.80
2018-08-10T14:10:44.551Z,0.78
2018-08-10T14:13:19.306Z,2.70
2018-08-10T14:15:55.289Z,2.22
2018-08-10T14:18:30.059Z,0.50
2018-08-10T14:21:04.974Z,1.87
2018-08-10T14:23:40.127Z,4.00
2018-08-10T14:26:14.960Z,2.95
2018-08-10T14:28:49.721Z,1.98
2018-08-10T14:31:24.559Z,1.60
2018-08-10T14:34:02.249Z,2.10
2018-08-10T14:36:49.068Z,2.00
2018-08-10T14:39:30.505Z,3.22
2018-08-10T14:42:24.679Z,3.15
2018-08-10T14:44:59.601Z,2.25
2018-08-10T14:47:34.470Z,3.62
2018-08-10T14:50:11.375Z,1.92
2018-08-10T14:52:46.180Z,2.87
2018-08-10T14:55:21.376Z,1.60
2018-08-10T14:57:56.182Z,3.05
2018-08-10T15:00:50.843Z,2.33
2018-08-10T15:03:28.756Z,0.42
2018-08-10T15:06:05.813Z,2.33
2018-08-10T15:08:42.068Z,2.70
2018-08-10T15:11:19.344Z,1.67
2018-08-10T15:13:54.116Z,0.95
2018-08-10T15:16:29.961Z,1.42
2018-08-10T15:19:05.711Z,2.10
2018-08-10T15:21:44.871Z,2.87
2018-08-10T15:24:19.699Z,1.30
2018-08-10T15:26:54.464Z,2.05
2018-08-10T15:29:29.292Z,1.25
2018-08-10T15:32:05.115Z,1.75
2018-08-10T15:34:39.960Z,4.70
2018-08-10T15:37:17.212Z,3.72
2018-08-10T15:39:51.960Z,3.00
2018-08-10T15:42:27.801Z,1.12
2018-08-10T15:45:02.590Z,0.98
2018-08-10T15:47:37.659Z,2.20
2018-08-10T15:50:12.683Z,4.00
2018-08-10T15:52:47.492Z,3.50
2018-08-10T15:55:22.368Z,3.33
2018-08-10T15:57:57.178Z,4.92
2018-08-10T16:00:31.943Z,4.47
2018-08-10T16:03:06.807Z,3.05
2018-08-10T16:05:41.607Z,3.52
2018-08-10T16:08:16.432Z,3.60
2018-08-10T16:10:52.261Z,2.27
2018-08-10T16:13:27.053Z,3.70
2018-08-10T16:16:01.855Z,2.27
2018-08-10T16:18:36.933Z,2.87
2018-08-10T16:21:11.742Z,2.87
2018-08-10T16:23:46.788Z,1.07
2018-08-10T16:26:21.628Z,2.30
2018-08-10T16:28:57.416Z,2.15
2018-08-10T16:31:32.206Z,3.50
2018-08-10T16:34:07.281Z,2.80
2018-08-10T16:36:42.081Z,4.65
2018-08-10T16:39:16.908Z,3.35
2018-08-10T16:41:51.720Z,2.80
2018-08-10T16:44:26.485Z,5.53
2018-08-10T16:47:01.475Z,5.15
2018-08-10T16:49:36.287Z,4.05
2018-08-10T16:52:11.045Z,7.83
2018-08-10T16:54:46.849Z,8.20
2018-08-10T16:57:21.647Z,5.53
2018-08-10T16:59:56.787Z,7.05
2018-08-10T17:02:32.709Z,6.95
2018-08-10T17:05:08.349Z,5.47
2018-08-10T17:07:44.404Z,3.20
2018-08-10T17:10:19.230Z,13.50
2018-08-10T17:12:54.037Z,7.62
2018-08-10T17:15:28.826Z,6.62
2018-08-10T17:18:03.919Z,3.62
2018-08-10T17:20:39.079Z,23.45
2018-08-10T17:23:14.892Z,23.30
2018-08-10T17:26:37.443Z,7.05
2018-08-10T17:29:12.334Z,4.60
2018-08-10T17:31:47.151Z,4.47
2018-08-10T17:34:22.219Z,3.65
2018-08-10T17:36:57.032Z,7.03
2018-08-10T17:39:31.837Z,2.80
2018-08-10T17:42:07.694Z,2.52
2018-08-10T17:44:42.573Z,2.17
2018-08-10T17:47:17.739Z,2.20
2018-08-10T17:49:52.535Z,2.98
2018-08-10T17:52:28.348Z,5.37
2018-08-10T17:55:03.124Z,6.47
2018-08-10T17:57:37.994Z,4.35
2018-08-10T18:00:17.188Z,6.33
2018-08-10T18:02:52.259Z,3.70
2018-08-10T18:05:28.069Z,5.03
2018-08-10T18:08:02.849Z,3.77
2018-08-10T18:10:38.687Z,4.85
2018-08-10T18:13:15.619Z,4.58
2018-08-10T18:15:50.391Z,4.37
2018-08-10T18:18:25.204Z,2.40
2018-08-10T18:21:00.068Z,5.25
2018-08-10T18:23:34.851Z,7.37
2018-08-10T18:26:09.995Z,4.62
2018-08-10T18:28:44.852Z,5.87
2018-08-10T18:31:20.671Z,4.45
2018-08-10T18:33:55.571Z,7.12
2018-08-10T18:36:31.437Z,5.80
2018-08-10T18:39:12.080Z,3.87
2018-08-10T18:41:46.859Z,5.72
2018-08-10T18:44:21.628Z,2.60
2018-08-10T18:46:56.483Z,6.97
2018-08-10T18:49:32.409Z,3.05
2018-08-10T18:52:07.333Z,3.40
2018-08-10T18:54:42.535Z,3.55
2018-08-10T18:57:17.327Z,6.15
2018-08-10T18:59:52.121Z,6.03
2018-08-10T19:02:30.205Z,3.42
2018-08-10T19:05:08.978Z,3.33
2018-08-10T19:07:45.595Z,6.15
2018-08-10T19:10:26.113Z,3.98
2018-08-10T19:13:03.695Z,3.02
2018-08-10T19:15:38.647Z,5.05
2018-08-10T19:18:13.958Z,9.75
2018-08-10T19:20:48.755Z,4.50
2018-08-10T19:23:23.559Z,7.53
2018-08-10T19:25:58.660Z,4.80
2018-08-10T19:28:33.539Z,5.28
2018-08-10T19:31:08.334Z,4.28
2018-08-10T19:33:43.180Z,4.25
2018-08-10T19:36:20.083Z,7.37
2018-08-10T19:38:55.233Z,6.83
2018-08-10T19:41:30.077Z,7.20
2018-08-10T19:44:04.925Z,5.40
2018-08-10T19:46:39.677Z,5.85
2018-08-10T19:49:15.494Z,8.00
2018-08-10T19:51:50.456Z,3.77
2018-08-10T19:54:25.317Z,7.25
2018-08-10T19:57:01.220Z,9.03
2018-08-10T19:59:36.107Z,5.03
2018-08-10T20:02:10.876Z,4.50
2018-08-10T20:04:46.656Z,4.17
2018-08-10T20:07:22.479Z,5.22
2018-08-10T20:09:57.315Z,4.80
2018-08-10T20:12:32.058Z,7.85
2018-08-10T20:15:10.115Z,5.95
2018-08-10T20:17:45.107Z,6.80
2018-08-10T20:20:20.026Z,7.08
2018-08-10T20:22:54.818Z,6.12
2018-08-10T20:25:29.683Z,4.10
2018-08-10T20:28:04.535Z,4.40
2018-08-10T20:30:39.287Z,5.75
2018-08-10T20:33:14.150Z,7.92
2018-08-10T20:35:49.971Z,5.60
2018-08-10T20:38:24.741Z,4.70
2018-08-10T20:41:01.401Z,3.92
2018-08-10T20:43:36.615Z,4.12
2018-08-10T20:46:11.461Z,3.70
2018-08-10T20:48:46.352Z,8.75
2018-08-10T20:51:22.178Z,4.95
2018-08-10T20:53:56.990Z,8.98
2018-08-10T20:56:31.816Z,4.37
2018-08-10T20:59:07.828Z,4.22
2018-08-10T21:01:43.651Z,8.28
2018-08-10T21:04:18.476Z,4.45
2018-08-10T21:06:54.436Z,6.83
2018-08-10T21:09:30.384Z,3.90
2018-08-10T21:12:06.545Z,9.80
2018-08-10T21:14:42.391Z,7.08
2018-08-10T21:17:25.393Z,3.55
2018-08-10T21:20:21.791Z,8.25
2018-08-10T21:22:56.573Z,5.62
2018-08-10T21:25:31.331Z,4.58
2018-08-10T21:28:07.188Z,5.92
2018-08-10T21:30:41.991Z,5.25
2018-08-10T21:33:16.864Z,6.72
2018-08-10T21:35:51.637Z,5.83
2018-08-10T21:38:26.471Z,3.87
2018-08-10T21:41:01.273Z,6.45
2018-08-10T21:43:36.062Z,4.00
2018-08-10T21:46:10.902Z,4.87
2018-08-10T21:48:46.755Z,5.17
2018-08-10T21:51:21.543Z,5.53
2018-08-10T21:53:57.753Z,4.78
2018-08-10T21:56:51.331Z,6.28
2018-08-10T22:02:28.075Z,8.73
2018-08-10T22:05:02.892Z,9.10
2018-08-10T22:07:37.999Z,7.10
2018-08-10T22:10:13.840Z,6.95
2018-08-10T22:12:49.333Z,6.33
2018-08-10T22:15:29.555Z,9.03
2018-08-10T22:18:10.078Z,9.03
2018-08-10T22:20:44.948Z,11.08
2018-08-10T22:23:21.913Z,7.40
2018-08-10T22:25:57.082Z,9.15
2018-08-10T22:28:34.912Z,5.50
2018-08-10T22:31:10.829Z,5.65
2018-08-10T22:33:45.908Z,10.43
2018-08-10T22:36:21.731Z,7.20
2018-08-10T22:38:56.547Z,7.53
2018-08-10T22:41:32.324Z,7.03
2018-08-10T22:44:08.638Z,6.55
2018-08-10T22:46:44.171Z,5.80
2018-08-10T22:49:19.528Z,5.33
2018-08-10T22:51:55.369Z,7.28
2018-08-10T22:54:31.072Z,7.87
2018-08-10T22:57:06.575Z,5.00
2018-08-10T22:59:42.274Z,5.75
2018-08-10T23:02:17.442Z,7.47
2018-08-10T23:04:54.219Z,7.50
2018-08-10T23:07:30.733Z,4.95
2018-08-10T23:10:07.089Z,5.47
2018-08-10T23:12:43.589Z,4.72
2018-08-10T23:15:18.737Z,8.15
2018-08-10T23:17:54.093Z,6.78
2018-08-10T23:20:30.981Z,5.35
2018-08-10T23:23:06.632Z,4.17
2018-08-10T23:25:42.875Z,8.78
2018-08-10T23:28:17.648Z,4.97
2018-08-10T23:30:53.966Z,6.17
2018-08-10T23:33:28.856Z,5.85
2018-08-10T23:36:05.274Z,5.35
2018-08-10T23:38:41.814Z,7.47
2018-08-10T23:41:16.627Z,4.80
2018-08-10T23:43:53.134Z,7.58
2018-08-10T23:46:27.911Z,3.95
2018-08-10T23:49:05.610Z,5.45
2018-08-10T23:51:42.687Z,5.65
2018-08-10T23:54:18.600Z,5.65
2018-08-10T23:56:56.184Z,6.08
2018-08-10T23:59:31.841Z,5.78
